Time;durP1;ratioP1;P1;durP2;ratioP2;P2;SDS_P1;SDS_P2;PMS_P1;PMS_P2;Temp;Humidity;BMP_temperature;BMP_pressure;BME280_temperature;BME280_humidity;BME280_pressure;Samples;Min_cycle;Max_cycle;Signal;HPM_P1;HPM_P2
2022/10/08 00:01:20;;;;;;;1.30;1.30;;;13.70;96.10;12.90;96268.00;;;;5113648;28;20190;-52
2022/10/08 00:03:50;;;;;;;1.47;1.37;;;13.60;96.00;12.90;96268.00;;;;5115740;28;20193;-52
2022/10/08 00:06:20;;;;;;;1.23;1.23;;;13.50;96.30;12.80;96261.00;;;;5116774;28;20300;-52
2022/10/08 00:08:50;;;;;;;2.37;2.03;;;13.40;96.70;12.80;96264.00;;;;5116766;28;20194;-52
2022/10/08 00:11:20;;;;;;;2.10;1.77;;;13.40;97.10;12.80;96263.00;;;;5116622;28;20274;-53
2022/10/08 00:13:49;;;;;;;1.30;1.30;;;13.50;97.30;12.80;96261.00;;;;5116680;28;20186;-52
2022/10/08 00:16:20;;;;;;;1.53;1.43;;;13.50;97.00;12.80;96265.00;;;;5116549;28;20228;-52
2022/10/08 00:18:49;;;;;;;1.67;1.57;;;13.50;97.00;12.90;96261.00;;;;5098435;28;20312;-52
2022/10/08 00:21:19;;;;;;;0.80;0.80;;;13.60;97.10;12.90;96276.00;;;;5116640;28;20200;-52
2022/10/08 00:23:48;;;;;;;0.93;0.93;;;13.60;96.80;12.90;96276.00;;;;5116534;28;20194;-52
2022/10/08 00:26:17;;;;;;;1.20;1.20;;;13.60;96.80;12.80;96270.00;;;;5116459;28;20629;-51
2022/10/08 00:28:46;;;;;;;2.90;1.87;;;13.50;96.70;12.90;96261.00;;;;5098463;28;20205;-52
2022/10/08 00:31:17;;;;;;;1.20;1.20;;;13.60;96.80;12.80;96260.00;;;;5116427;28;20653;-52
2022/10/08 00:33:44;;;;;;;1.63;1.53;;;13.60;96.90;12.90;96258.00;;;;5116386;28;20283;-52
2022/10/08 00:36:12;;;;;;;1.00;1.00;;;13.60;97.30;12.90;96261.00;;;;5116272;28;20259;-52
2022/10/08 00:38:39;;;;;;;1.20;1.20;;;13.60;97.30;12.90;96260.00;;;;5116250;28;20656;-52
2022/10/08 00:41:17;;;;;;;1.13;1.13;;;13.60;97.20;12.90;96257.00;;;;5116345;28;20559;-52
2022/10/08 00:43:47;;;;;;;1.10;1.10;;;13.60;97.00;12.80;96261.00;;;;5116275;28;20262;-52
2022/10/08 00:46:25;;;;;;;1.83;1.67;;;13.60;96.70;12.80;96253.00;;;;5098164;28;20205;-52
2022/10/08 00:48:59;;;;;;;0.83;0.83;;;13.50;96.90;12.70;96243.00;;;;5116208;28;20217;-52
2022/10/08 00:51:26;;;;;;;1.67;1.57;;;13.40;96.30;12.70;96252.00;;;;5097974;28;20525;-52
2022/10/08 00:53:53;;;;;;;1.37;1.37;;;13.40;96.70;12.60;96238.00;;;;5116032;28;20213;-52
2022/10/08 00:56:22;;;;;;;0.80;0.80;;;13.30;96.90;12.60;96245.00;;;;5115813;28;20232;-52
2022/10/08 00:58:53;;;;;;;1.40;1.30;;;13.40;97.10;12.60;96246.00;;;;5115952;28;20236;-54
2022/10/08 01:01:19;;;;;;;1.50;1.40;;;13.30;97.10;12.60;96240.00;;;;5115834;28;20252;-52
2022/10/08 01:03:46;;;;;;;2.03;1.93;;;13.30;97.30;12.70;96240.00;;;;5116040;28;20206;-52
2022/10/08 01:06:25;;;;;;;1.30;1.27;;;13.30;97.70;12.80;96243.00;;;;5115873;28;20625;-52
2022/10/08 01:09:00;;;;;;;1.10;1.10;;;13.40;98.00;12.80;96246.00;;;;5097960;28;20209;-52
2022/10/08 01:11:47;;;;;;;0.93;0.93;;;13.40;97.70;12.70;96244.00;;;;5115793;28;20205;-54
2022/10/08 01:14:32;;;;;;;0.97;0.93;;;13.40;97.50;12.70;96241.00;;;;5096553;28;20205;-57
2022/10/08 01:17:11;;;;;;;1.43;1.43;;;13.40;97.60;12.70;96243.00;;;;5115801;28;20186;-52
2022/10/08 01:20:12;;;;;;;1.00;1.00;;;13.40;97.60;12.70;96235.00;;;;5115812;28;20225;-52
2022/10/08 01:23:08;;;;;;;1.03;1.03;;;13.30;97.50;12.60;96246.00;;;;5108322;28;20313;-52
2022/10/08 01:25:51;;;;;;;1.43;1.43;;;13.30;97.90;12.60;96237.00;;;;5097650;28;20237;-52
2022/10/08 01:28:25;;;;;;;0.77;0.77;;;13.30;97.50;12.60;96230.00;;;;5097760;28;20294;-53
2022/10/08 01:31:00;;;;;;;1.70;1.60;;;13.30;97.70;12.60;96231.00;;;;5114665;28;20720;-57
2022/10/08 01:33:37;;;;;;;3.30;1.47;;;13.40;97.60;12.60;96232.00;;;;5115436;28;20277;-54
2022/10/08 01:36:06;;;;;;;1.67;1.57;;;13.20;97.50;12.50;96233.00;;;;5097450;28;20226;-52
2022/10/08 01:38:40;;;;;;;1.50;1.40;;;13.20;97.70;12.60;96217.00;;;;5115237;28;20673;-52
2022/10/08 01:41:11;;;;;;;1.07;1.07;;;13.30;97.90;12.60;96233.00;;;;5115321;28;20229;-52
2022/10/08 01:43:45;;;;;;;1.13;1.13;;;13.30;97.50;12.60;96227.00;;;;5115215;28;20262;-52
2022/10/08 01:46:22;;;;;;;1.93;1.83;;;13.30;97.30;12.60;96231.00;;;;5115201;28;20220;-53
2022/10/08 01:48:52;;;;;;;2.33;2.23;;;13.30;97.30;12.50;96228.00;;;;5115203;28;20208;-53
2022/10/08 01:51:25;;;;;;;1.53;1.47;;;13.20;97.50;12.60;96237.00;;;;5115066;28;20198;-52
2022/10/08 01:53:53;;;;;;;1.17;1.17;;;13.20;97.70;12.60;96230.00;;;;5097176;28;20241;-58
2022/10/08 01:56:25;;;;;;;1.20;1.20;;;13.20;97.70;12.60;96227.00;;;;5115155;28;20210;-56
2022/10/08 01:58:57;;;;;;;2.37;2.17;;;13.20;97.70;12.50;96222.00;;;;5115127;28;20218;-52
2022/10/08 02:01:33;;;;;;;1.80;1.70;;;13.20;97.50;12.60;96219.00;;;;5115063;28;20190;-57
2022/10/08 02:06:54;;;;;;;2.10;2.00;;;13.20;97.50;12.50;96216.00;;;;5115043;28;20186;-57
2022/10/08 02:09:26;;;;;;;5.40;2.90;;;13.20;97.70;12.50;96217.00;;;;5114989;28;20278;-59
2022/10/08 02:11:52;;;;;;;2.27;2.13;;;13.20;98.70;12.60;96210.00;;;;5114925;28;20222;-56
2022/10/08 02:14:25;;;;;;;1.70;1.53;;;13.20;98.10;12.60;96211.00;;;;5096761;28;20662;-54
2022/10/08 02:17:03;;;;;;;1.63;1.53;;;13.30;98.20;12.70;96213.00;;;;5114850;28;20649;-54
2022/10/08 02:19:43;;;;;;;0.90;0.90;;;13.30;98.10;12.60;96213.00;;;;5114626;28;20594;-54
2022/10/08 02:22:15;;;;;;;1.17;1.17;;;13.30;97.60;12.40;96205.00;;;;5113811;28;20202;-57
2022/10/08 02:24:51;;;;;;;1.30;1.27;;;13.30;97.50;12.50;96205.00;;;;5114815;28;20198;-57
2022/10/08 02:27:28;;;;;;;1.50;1.50;;;13.20;97.40;12.50;96213.00;;;;5114657;28;20210;-63
2022/10/08 02:30:06;;;;;;;2.13;1.70;;;13.10;98.10;12.50;96215.00;;;;5114953;28;20232;-54
2022/10/08 02:32:40;;;;;;;2.10;2.00;;;13.10;97.90;12.50;96218.00;;;;5114913;28;20190;-58
2022/10/08 02:35:14;;;;;;;1.40;1.30;;;13.10;98.00;12.50;96207.00;;;;5114747;28;20194;-55
2022/10/08 02:37:46;;;;;;;1.10;1.10;;;13.10;97.80;12.50;96198.00;;;;5114975;28;20233;-56
2022/10/08 02:40:16;;;;;;;1.43;1.43;;;13.20;97.90;12.60;96210.00;;;;5113515;28;20625;-54
2022/10/08 02:42:50;;;;;;;1.17;1.17;;;13.20;98.60;12.40;96204.00;;;;5114308;28;20213;-52
2022/10/08 02:45:23;;;;;;;1.27;1.17;;;13.20;97.20;12.40;96191.00;;;;5096230;28;20206;-53
2022/10/08 02:47:58;;;;;;;0.97;0.97;;;13.10;97.60;12.30;96218.00;;;;5114270;28;20227;-54
2022/10/08 02:50:29;;;;;;;0.80;0.80;;;13.00;97.50;12.30;96214.00;;;;5114413;28;20198;-60
2022/10/08 02:52:56;;;;;;;1.00;1.00;;;13.00;98.20;12.30;96204.00;;;;5114145;28;20208;-53
2022/10/08 02:55:39;;;;;;;1.03;1.03;;;12.90;97.90;12.30;96202.00;;;;5114162;28;20198;-53
2022/10/08 02:58:11;;;;;;;1.10;1.10;;;12.90;98.30;12.40;96204.00;;;;5113999;28;20243;-52
2022/10/08 03:00:47;;;;;;;0.90;0.90;;;13.00;98.50;12.40;96204.00;;;;5114117;28;20216;-51
2022/10/08 03:03:20;;;;;;;0.90;0.90;;;13.10;98.70;12.40;96203.00;;;;5114019;28;20586;-51
2022/10/08 03:05:51;;;;;;;0.70;0.70;;;13.10;98.30;12.40;96207.00;;;;5113995;28;20206;-52
2022/10/08 03:08:20;;;;;;;1.40;1.30;;;13.10;98.40;12.50;96203.00;;;;5114208;28;20226;-53
2022/10/08 03:10:48;;;;;;;3.00;1.27;;;13.10;98.60;12.40;96212.00;;;;5114094;28;20217;-52
2022/10/08 03:13:17;;;;;;;1.70;1.37;;;13.10;98.60;12.50;96208.00;;;;5113883;28;20210;-51
2022/10/08 03:15:47;;;;;;;1.27;1.17;;;13.20;98.80;12.50;96210.00;;;;5113732;28;20664;-51
2022/10/08 03:18:14;;;;;;;2.63;2.07;;;13.20;99.10;12.60;96216.00;;;;5113736;28;20209;-51
2022/10/08 03:20:45;;;;;;;1.20;1.20;;;13.20;99.20;12.50;96210.00;;;;5113795;28;20279;-51
2022/10/08 03:23:16;;;;;;;1.50;1.40;;;13.20;98.70;12.50;96218.00;;;;5113762;28;20205;-51
2022/10/08 03:25:42;;;;;;;1.47;1.37;;;13.20;98.90;12.50;96211.00;;;;5095717;28;20293;-55
2022/10/08 03:28:09;;;;;;;0.97;0.97;;;13.20;98.80;12.60;96222.00;;;;5113750;28;20233;-51
2022/10/08 03:30:36;;;;;;;1.07;1.07;;;13.20;99.00;12.60;96222.00;;;;5113593;28;20205;-51
2022/10/08 03:33:03;;;;;;;1.60;1.40;;;13.20;98.90;12.60;96202.00;;;;5113495;28;20660;-52
2022/10/08 03:35:30;;;;;;;0.90;0.90;;;13.20;99.10;12.50;96231.00;;;;5113682;28;20198;-51
2022/10/08 03:37:57;;;;;;;1.57;1.47;;;13.20;99.00;12.50;96233.00;;;;5114769;28;20283;-51
2022/10/08 03:40:25;;;;;;;1.07;1.07;;;13.20;98.80;12.60;96237.00;;;;5117104;28;20296;-51
2022/10/08 03:42:52;;;;;;;1.77;1.67;;;13.30;98.90;12.60;96237.00;;;;5117137;28;20194;-51
2022/10/08 03:45:18;;;;;;;3.10;1.47;;;13.30;98.80;12.50;96239.00;;;;5117067;28;20200;-51
2022/10/08 03:47:50;;;;;;;1.20;1.20;;;13.20;98.80;12.50;96241.00;;;;5099306;28;20208;-52
2022/10/08 03:50:18;;;;;;;3.00;1.97;;;13.20;98.90;12.40;96238.00;;;;5117027;28;20299;-53
2022/10/08 03:52:44;;;;;;;2.37;2.23;;;13.10;98.90;12.30;96248.00;;;;5098995;28;20205;-51
2022/10/08 03:55:13;;;;;;;1.27;1.27;;;13.00;98.00;12.20;96248.00;;;;5117052;28;20222;-53
2022/10/08 03:57:39;;;;;;;1.70;1.37;;;12.90;98.00;12.20;96244.00;;;;5116832;28;20209;-51
2022/10/08 04:00:10;;;;;;;1.67;1.57;;;12.80;98.00;12.20;96252.00;;;;5116832;28;20194;-51
2022/10/08 04:02:36;;;;;;;1.53;1.43;;;12.80;98.20;12.20;96248.00;;;;5098818;28;20220;-51
2022/10/08 04:05:03;;;;;;;1.33;1.23;;;12.80;98.40;12.20;96243.00;;;;5116795;28;20204;-51
2022/10/08 04:07:30;;;;;;;1.00;1.00;;;12.80;99.90;12.20;96248.00;;;;5116652;28;20206;-51
2022/10/08 04:09:57;;;;;;;1.10;1.10;;;12.90;99.90;12.10;96249.00;;;;5116686;28;20664;-51
2022/10/08 04:12:23;;;;;;;1.17;1.17;;;12.80;98.20;12.10;96255.00;;;;5116615;28;20653;-51
2022/10/08 04:14:49;;;;;;;1.23;1.23;;;12.80;98.10;12.10;96257.00;;;;5116612;28;20202;-51
2022/10/08 04:17:16;;;;;;;0.80;0.80;;;12.80;98.00;12.10;96260.00;;;;5116512;28;20362;-51
2022/10/08 04:19:42;;;;;;;1.03;1.03;;;12.80;98.30;12.10;96255.00;;;;5116597;28;20245;-51
2022/10/08 04:22:09;;;;;;;1.37;1.33;;;12.80;98.10;12.10;96258.00;;;;5116453;28;20197;-51
2022/10/08 04:24:36;;;;;;;0.80;0.80;;;12.80;98.20;11.90;96255.00;;;;5098543;28;20209;-51
2022/10/08 04:27:02;;;;;;;1.03;1.03;;;12.70;97.50;11.90;96267.00;;;;5116412;28;20189;-51
2022/10/08 04:29:28;;;;;;;1.37;1.37;;;12.60;97.80;11.80;96250.00;;;;5116428;28;20198;-51
2022/10/08 04:31:55;;;;;;;1.13;1.13;;;12.60;98.10;11.80;96251.00;;;;5116322;28;20197;-51
2022/10/08 04:34:21;;;;;;;0.93;0.93;;;12.50;98.60;11.80;96255.00;;;;5116293;28;20208;-51
2022/10/08 04:36:50;;;;;;;1.07;1.07;;;12.50;98.80;11.80;96261.00;;;;5116282;28;20517;-51
2022/10/08 04:39:16;;;;;;;1.27;1.20;;;12.50;98.50;11.70;96261.00;;;;5116395;28;20214;-51
2022/10/08 04:41:43;;;;;;;0.93;0.83;;;12.40;98.20;11.70;96259.00;;;;5116482;28;20194;-51
2022/10/08 04:44:10;;;;;;;1.23;1.20;;;12.40;98.70;11.70;96258.00;;;;5116248;28;20190;-52
2022/10/08 04:46:36;;;;;;;1.13;1.10;;;12.40;98.90;11.70;96265.00;;;;5116158;28;20277;-51
2022/10/08 04:49:03;;;;;;;0.77;0.77;;;12.40;99.20;11.80;96272.00;;;;5115645;28;20639;-51
2022/10/08 04:51:29;;;;;;;0.97;0.97;;;12.40;99.80;11.70;96270.00;;;;5115988;28;20277;-51
2022/10/08 04:53:57;;;;;;;1.87;1.37;;;12.40;99.90;11.70;96270.00;;;;5115877;28;20221;-51
2022/10/08 04:56:26;;;;;;;1.13;1.13;;;12.40;99.90;11.70;96282.00;;;;5116023;28;20228;-51
2022/10/08 04:58:54;;;;;;;1.13;1.13;;;12.40;99.90;11.80;96257.00;;;;5115736;28;20311;-52
2022/10/08 05:01:21;;;;;;;1.80;1.70;;;12.50;99.90;11.70;96285.00;;;;5115775;28;20210;-51
2022/10/08 05:03:52;;;;;;;2.50;2.30;;;12.50;99.90;11.70;96280.00;;;;5114940;28;20377;-51
2022/10/08 05:06:21;;;;;;;1.23;1.23;;;12.40;99.90;11.80;96286.00;;;;5115795;28;20239;-51
2022/10/08 05:08:48;;;;;;;1.30;1.30;;;12.50;99.90;11.70;96277.00;;;;5115714;28;20610;-52
2022/10/08 05:11:17;;;;;;;2.30;1.87;;;12.50;99.90;11.70;96278.00;;;;5115618;28;20211;-51
2022/10/08 05:13:50;;;;;;;1.00;1.00;;;12.40;99.90;11.80;96279.00;;;;5115583;28;20221;-51
2022/10/08 05:16:17;;;;;;;2.03;1.93;;;12.50;99.90;11.80;96290.00;;;;5115694;28;20198;-51
2022/10/08 05:18:44;;;;;;;1.73;1.63;;;12.50;99.90;11.80;96291.00;;;;5115432;28;20534;-51
2022/10/08 05:21:13;;;;;;;1.43;1.33;;;12.60;99.90;11.80;96283.00;;;;5115667;28;20482;-51
2022/10/08 05:23:43;;;;;;;5.03;2.77;;;12.50;99.90;11.70;96285.00;;;;5115476;28;20304;-51
2022/10/08 05:26:15;;;;;;;3.20;2.47;;;12.50;99.20;11.70;96288.00;;;;5115658;28;20202;-51
2022/10/08 05:28:42;;;;;;;6.73;6.03;;;12.40;99.80;11.70;96284.00;;;;5115441;28;20278;-51
2022/10/08 05:31:10;;;;;;;5.67;2.93;;;12.40;99.90;11.60;96296.00;;;;5115970;28;20243;-53
2022/10/08 05:33:38;;;;;;;8.23;2.93;;;12.40;99.20;11.60;96289.00;;;;5115436;28;20237;-52
2022/10/08 05:36:09;;;;;;;2.23;2.13;;;12.30;99.40;11.50;96295.00;;;;5115374;28;20293;-53
2022/10/08 05:38:35;;;;;;;1.03;1.03;;;12.30;99.40;11.50;96296.00;;;;5115098;28;20224;-51
2022/10/08 05:41:10;;;;;;;1.00;1.00;;;12.20;99.30;11.50;96285.00;;;;5097193;28;20202;-51
2022/10/08 05:43:39;;;;;;;1.77;1.67;;;12.20;98.80;11.50;96284.00;;;;5115016;28;20196;-51
2022/10/08 05:46:06;;;;;;;1.80;1.70;;;12.20;98.90;11.60;96283.00;;;;5115247;28;20280;-51
2022/10/08 05:48:33;;;;;;;1.97;1.87;;;12.30;99.30;11.70;96307.00;;;;5114022;28;20190;-50
2022/10/08 05:51:05;;;;;;;1.73;1.67;;;12.40;99.80;11.60;96296.00;;;;5097167;28;20267;-51
2022/10/08 05:53:35;;;;;;;0.77;0.77;;;12.40;98.70;11.50;96308.00;;;;5097054;28;20210;-51
2022/10/08 05:56:04;;;;;;;1.73;1.43;;;12.30;98.60;11.60;96308.00;;;;5115294;28;20648;-52
2022/10/08 05:58:31;;;;;;;3.10;1.63;;;12.30;98.70;11.60;96308.00;;;;5114828;28;20240;-51
2022/10/08 06:00:58;;;;;;;0.97;0.97;;;12.30;98.00;11.60;96297.00;;;;5096104;28;20216;-51
2022/10/08 06:03:25;;;;;;;1.00;1.00;;;12.30;98.40;11.50;96314.00;;;;5114881;28;20285;-50
2022/10/08 06:05:52;;;;;;;1.83;1.73;;;12.30;98.10;11.50;96322.00;;;;5114818;28;20194;-53
2022/10/08 06:08:19;;;;;;;0.90;0.90;;;12.30;98.10;11.60;96320.00;;;;5114894;28;20186;-51
2022/10/08 06:10:50;;;;;;;1.00;1.00;;;12.30;98.50;11.70;96318.00;;;;5114775;28;20236;-51
2022/10/08 06:13:17;;;;;;;1.07;1.07;;;12.40;98.90;11.80;96323.00;;;;5114740;28;20236;-51
2022/10/08 06:15:55;;;;;;;0.93;0.93;;;12.50;99.30;11.90;96326.00;;;;5114633;28;20334;-51
2022/10/08 06:18:22;;;;;;;0.97;0.97;;;12.60;99.40;12.00;96322.00;;;;5114421;28;20207;-51
2022/10/08 06:20:50;;;;;;;2.17;2.07;;;12.60;99.40;12.10;96327.00;;;;5096497;28;20618;-53
2022/10/08 06:23:17;;;;;;;1.53;1.43;;;12.70;99.70;12.10;96331.00;;;;5114536;28;20564;-51
2022/10/08 06:25:45;;;;;;;2.27;2.10;;;;;12.30;96338.00;;;;5114552;28;20641;-51
2022/10/08 06:28:12;;;;;;;0.73;0.73;;;12.90;98.50;12.20;96325.00;;;;5114461;28;20221;-51
2022/10/08 06:30:40;;;;;;;3.10;2.10;;;12.80;97.20;12.20;96334.00;;;;5114423;28;20300;-51
2022/10/08 06:33:07;;;;;;;0.87;0.87;;;12.80;97.40;12.20;96342.00;;;;5114555;28;20198;-56
2022/10/08 06:35:33;;;;;;;0.97;0.97;;;12.90;96.80;12.20;96342.00;;;;5114294;28;20251;-53
2022/10/08 06:38:03;;;;;;;1.20;1.20;;;12.80;96.80;12.20;96345.00;;;;5114411;28;20254;-54
2022/10/08 06:40:32;;;;;;;1.40;1.30;;;12.90;97.50;12.30;96348.00;;;;5114420;28;20221;-54
2022/10/08 06:42:59;;;;;;;1.30;1.20;;;12.90;97.40;12.40;96352.00;;;;5114303;28;20212;-56
2022/10/08 06:45:25;;;;;;;1.10;1.10;;;13.00;97.10;12.50;96346.00;;;;5114381;28;20518;-57
2022/10/08 06:47:51;;;;;;;1.60;1.50;;;13.00;96.80;12.50;96355.00;;;;5114305;28;20194;-53
2022/10/08 06:50:20;;;;;;;1.50;1.00;;;13.10;96.40;12.70;96355.00;;;;5114042;28;20280;-52
2022/10/08 06:52:47;;;;;;;1.23;1.13;;;13.30;96.00;12.80;96354.00;;;;5114141;28;20194;-52
2022/10/08 06:55:14;;;;;;;1.13;1.13;;;13.30;95.50;12.90;96357.00;;;;5096195;28;20687;-52
2022/10/08 06:57:40;;;;;;;1.13;1.13;;;13.50;95.00;13.10;96359.00;;;;5114056;28;20193;-51
2022/10/08 07:00:09;;;;;;;1.07;1.07;;;13.70;94.60;13.20;96352.00;;;;5113915;28;20232;-51
2022/10/08 07:02:36;;;;;;;1.10;1.10;;;13.70;94.00;13.30;96361.00;;;;5113790;28;20279;-51
2022/10/08 07:05:02;;;;;;;1.07;1.07;;;13.90;93.40;13.10;96359.00;;;;5095865;28;20628;-56
2022/10/08 07:07:31;;;;;;;1.27;1.27;;;13.80;93.00;13.30;96362.00;;;;5113891;28;20256;-51
2022/10/08 07:10:00;;;;;;;0.90;0.90;;;13.80;93.10;13.30;96369.00;;;;5113677;28;20628;-51
2022/10/08 07:12:28;;;;;;;1.27;1.27;;;13.90;93.20;13.40;96370.00;;;;5113797;28;20190;-51
2022/10/08 07:14:55;;;;;;;1.67;1.57;;;14.00;92.40;13.60;96367.00;;;;5113713;28;20714;-51
2022/10/08 07:17:24;;;;;;;1.83;1.73;;;14.20;91.90;13.80;96367.00;;;;5113768;28;20197;-54
2022/10/08 07:19:51;;;;;;;0.90;0.90;;;14.30;88.20;13.80;96380.00;;;;5113782;28;20221;-51
2022/10/08 07:22:18;;;;;;;1.13;1.13;;;14.30;89.10;13.90;96384.00;;;;5113524;28;20634;-51
2022/10/08 07:24:46;;;;;;;1.13;0.90;;;14.40;89.00;14.10;96388.00;;;;5113681;28;20205;-51
2022/10/08 07:27:16;;;;;;;0.90;0.90;;;14.60;88.30;14.30;96390.00;;;;5113633;28;20190;-51
2022/10/08 07:29:43;;;;;;;0.87;0.87;;;14.70;87.90;14.50;96393.00;;;;5113646;28;20541;-51
2022/10/08 07:32:09;;;;;;;1.30;1.20;;;15.00;86.80;14.60;96392.00;;;;5095649;28;20270;-51
2022/10/08 07:34:36;;;;;;;0.80;0.80;;;;;14.70;96397.00;;;;5113558;28;20222;-51
2022/10/08 07:37:03;;;;;;;0.73;0.73;;;15.20;83.00;14.70;96399.00;;;;5113452;28;20505;-54
2022/10/08 07:39:29;;;;;;;0.80;0.80;;;15.20;80.90;14.70;96404.00;;;;5113667;28;20579;-55
2022/10/08 07:41:56;;;;;;;0.90;0.90;;;15.20;79.20;14.70;96408.00;;;;5113646;28;20214;-53
2022/10/08 07:44:22;;;;;;;0.67;0.67;;;15.20;80.40;14.70;96415.00;;;;5095436;28;20202;-53
2022/10/08 07:46:52;;;;;;;0.87;0.87;;;15.30;80.50;14.80;96389.00;;;;5113190;28;20271;-52
2022/10/08 07:49:19;;;;;;;1.23;1.00;;;15.40;78.30;14.80;96414.00;;;;5095402;28;20221;-53
2022/10/08 07:51:49;;;;;;;0.90;0.90;;;15.30;77.40;14.60;96394.00;;;;5113155;28;20226;-54
2022/10/08 07:54:18;;;;;;;0.80;0.80;;;15.20;76.60;14.50;96403.00;;;;5095323;28;20198;-54
2022/10/08 07:56:48;;;;;;;0.70;0.70;;;15.10;76.40;14.50;96396.00;;;;5113274;28;20225;-54
2022/10/08 07:59:14;;;;;;;0.97;0.87;;;15.10;76.30;14.50;96412.00;;;;5113225;28;20252;-54
2022/10/08 08:01:42;;;;;;;0.57;0.57;;;15.00;76.20;14.50;96414.00;;;;5113269;28;20281;-55
2022/10/08 08:04:10;;;;;;;0.70;0.70;;;15.10;75.10;14.60;96390.00;;;;5113317;28;20232;-54
2022/10/08 08:06:40;;;;;;;0.50;0.50;;;15.20;74.90;14.70;96411.00;;;;5095140;28;20242;-54
2022/10/08 08:09:08;;;;;;;0.90;0.90;;;15.20;74.10;14.70;96416.00;;;;5095141;28;20699;-53
2022/10/08 08:11:35;;;;;;;0.60;0.60;;;15.30;69.70;14.80;96419.00;;;;5113013;28;20222;-54
2022/10/08 08:14:02;;;;;;;1.80;0.80;;;15.30;69.10;14.70;96425.00;;;;5113165;28;20210;-54
2022/10/08 08:16:29;;;;;;;0.60;0.60;;;15.30;68.20;14.70;96418.00;;;;5095141;28;20600;-53
2022/10/08 08:18:58;;;;;;;0.60;0.60;;;15.20;69.80;14.80;96426.00;;;;5095227;28;20559;-54
2022/10/08 08:21:30;;;;;;;0.77;0.70;;;15.30;69.30;14.90;96417.00;;;;5113117;28;20677;-53
2022/10/08 08:24:02;;;;;;;1.23;1.13;;;15.30;65.70;15.00;96413.00;;;;5096443;28;20202;-54
2022/10/08 08:26:35;;;;;;;1.43;1.33;;;15.50;67.20;15.00;96413.00;;;;5116555;28;20225;-53
2022/10/08 08:29:05;;;;;;;0.70;0.70;;;15.50;64.20;15.00;96440.00;;;;5116516;28;20248;-56
2022/10/08 08:31:33;;;;;;;1.10;1.10;;;15.50;65.10;15.00;96417.00;;;;5116567;28;20287;-53
2022/10/08 08:34:02;;;;;;;0.80;0.80;;;15.50;64.20;15.00;96434.00;;;;5116583;28;20201;-54
2022/10/08 08:36:31;;;;;;;0.50;0.50;;;15.50;62.70;14.90;96427.00;;;;5116535;28;20202;-60
2022/10/08 08:38:59;;;;;;;0.57;0.57;;;15.40;62.40;15.10;96431.00;;;;5116399;28;20276;-54
2022/10/08 08:41:54;;;;;;;0.70;0.70;;;15.50;64.50;15.20;96428.00;;;;5116188;28;20186;-54
2022/10/08 08:44:24;;;;;;;0.40;0.40;;;15.80;61.40;15.40;96437.00;;;;5116248;28;20633;-55
2022/10/08 08:46:58;;;;;;;0.53;0.53;;;15.80;62.00;15.40;96430.00;;;;5116073;28;20202;-55
2022/10/08 08:49:31;;;;;;;0.50;0.50;;;15.80;56.20;15.20;96434.00;;;;5116408;28;20214;-54
2022/10/08 08:52:00;;;;;;;3.40;1.00;;;;;15.30;96431.00;;;;5115351;28;20209;-55
2022/10/08 08:54:26;;;;;;;0.80;0.80;;;15.80;93.60;15.30;96413.00;;;;5098155;28;20304;-53
2022/10/08 08:56:54;;;;;;;0.80;0.80;;;15.80;55.60;15.40;96430.00;;;;5098254;28;20267;-54
2022/10/08 08:59:31;;;;;;;0.70;0.70;;;15.80;55.90;15.60;96424.00;;;;5097929;28;20565;-53
2022/10/08 09:02:03;;;;;;;0.50;0.50;;;16.00;57.10;15.80;96434.00;;;;5098107;28;20229;-55
2022/10/08 09:04:40;;;;;;;0.53;0.53;;;;;15.80;96447.00;;;;5097984;28;20297;-55
2022/10/08 09:07:13;;;;;;;1.80;0.80;;;16.20;52.60;15.70;96448.00;;;;5116096;28;20192;-54
2022/10/08 09:09:45;;;;;;;0.60;0.60;;;16.10;52.60;15.60;96458.00;;;;5115916;28;20306;-53
2022/10/08 09:12:18;;;;;;;1.00;0.90;;;16.10;52.20;15.70;96447.00;;;;5115840;28;20582;-54
2022/10/08 09:14:51;;;;;;;0.60;0.60;;;16.20;53.50;15.60;96415.00;;;;5115729;28;20222;-53
2022/10/08 09:17:20;;;;;;;0.60;0.60;;;16.10;52.00;15.70;96458.00;;;;5097732;28;20556;-53
2022/10/08 09:19:48;;;;;;;0.50;0.50;;;16.20;52.60;15.60;96452.00;;;;5115638;28;20266;-58
2022/10/08 09:22:22;;;;;;;0.50;0.50;;;16.00;52.00;15.80;96460.00;;;;5115660;28;20202;-56
2022/10/08 09:24:53;;;;;;;0.60;0.60;;;16.00;49.30;15.40;96454.00;;;;5115741;28;20221;-56
2022/10/08 09:27:20;;;;;;;0.43;0.43;;;16.00;50.80;15.30;96454.00;;;;5114523;28;20606;-55
2022/10/08 09:29:47;;;;;;;0.80;0.80;;;15.90;52.40;15.60;96453.00;;;;5115584;28;20210;-57
2022/10/08 09:32:19;;;;;;;0.80;0.80;;;16.20;50.40;15.80;96462.00;;;;5115567;28;20218;-54
2022/10/08 09:34:47;;;;;;;1.70;1.07;;;16.20;51.10;15.70;96463.00;;;;5114867;28;20194;-54
2022/10/08 09:37:21;;;;;;;0.60;0.60;;;16.20;48.70;15.60;96459.00;;;;5114974;28;20276;-55
2022/10/08 09:40:18;;;;;;;0.67;0.67;;;16.00;48.40;15.50;96468.00;;;;5115253;28;20608;-55
2022/10/08 09:43:11;;;;;;;0.50;0.50;;;16.10;48.30;15.60;96453.00;;;;5097520;28;20631;-54
2022/10/08 09:45:43;;;;;;;0.83;0.83;;;15.90;48.70;15.30;96471.00;;;;5115238;28;20241;-55
2022/10/08 09:48:29;;;;;;;0.60;0.60;;;15.90;49.20;15.50;96476.00;;;;5115317;28;20219;-55
2022/10/08 09:51:01;;;;;;;0.50;0.50;;;16.00;49.90;15.50;96472.00;;;;5115266;28;20232;-55
2022/10/08 09:53:38;;;;;;;0.70;0.70;;;16.00;48.30;15.90;96483.00;;;;5115375;28;20198;-55
2022/10/08 09:56:08;;;;;;;6.27;0.77;;;16.20;47.90;15.90;96476.00;;;;5115459;28;20193;-55
2022/10/08 09:58:48;;;;;;;0.50;0.50;;;16.40;46.20;16.20;96473.00;;;;5114915;28;20240;-55
2022/10/08 10:01:17;;;;;;;0.67;0.67;;;16.50;45.80;16.20;96470.00;;;;5115011;28;20185;-55
2022/10/08 10:03:54;;;;;;;0.50;0.50;;;16.60;44.80;16.00;96476.00;;;;5115053;28;20229;-55
2022/10/08 10:06:32;;;;;;;0.63;0.63;;;16.50;45.80;16.40;96468.00;;;;5113939;28;20273;-55
2022/10/08 10:09:18;;;;;;;3.10;1.20;;;16.70;46.70;16.50;96476.00;;;;5114820;28;20376;-53
2022/10/08 10:11:50;;;;;;;0.50;0.50;;;16.90;44.80;16.40;96473.00;;;;5114879;28;20222;-53
2022/10/08 10:14:25;;;;;;;0.60;0.60;;;16.80;43.40;16.60;96475.00;;;;5114811;28;20192;-53
2022/10/08 10:17:00;;;;;;;0.70;0.70;;;;;17.00;96477.00;;;;5114801;28;20284;-54
2022/10/08 10:19:36;;;;;;;0.40;0.40;;;17.30;42.50;17.00;96470.00;;;;5114731;28;20223;-54
2022/10/08 10:22:10;;;;;;;1.47;1.37;;;17.30;42.50;17.40;96472.00;;;;5114813;28;20217;-56
2022/10/08 10:24:51;;;;;;;0.33;0.33;;;17.70;44.80;17.80;96469.00;;;;5114752;28;20293;-56
2022/10/08 10:27:30;;;;;;;0.87;0.87;;;18.00;44.00;17.90;96484.00;;;;5114672;28;20603;-55
2022/10/08 10:30:12;;;;;;;9.60;1.20;;;18.20;41.00;17.30;96495.00;;;;5114640;28;20556;-55
2022/10/08 10:32:44;;;;;;;4.90;1.03;;;17.80;39.60;17.00;96492.00;;;;5114656;28;20177;-56
2022/10/08 10:35:21;;;;;;;0.97;0.83;;;17.60;39.50;17.00;96485.00;;;;5114596;28;20289;-54
2022/10/08 10:37:53;;;;;;;0.50;0.50;;;17.60;41.00;17.10;96471.00;;;;5096761;28;20212;-54
2022/10/08 10:40:34;;;;;;;1.50;1.40;;;17.60;40.40;17.50;96467.00;;;;5114300;28;20295;-54
2022/10/08 10:43:24;;;;;;;5.77;1.10;;;17.70;40.20;17.70;96457.00;;;;5114494;28;20204;-54
2022/10/08 10:46:00;;;;;;;0.70;0.70;;;18.00;39.60;17.80;96472.00;;;;5114405;28;20218;-54
2022/10/08 10:48:29;;;;;;;0.40;0.40;;;18.10;40.20;17.90;96472.00;;;;5114332;28;20182;-54
2022/10/08 10:51:15;;;;;;;0.50;0.50;;;18.20;40.60;17.20;96472.00;;;;5114342;28;20204;-54
2022/10/08 10:53:59;;;;;;;0.60;0.60;;;17.70;39.20;17.00;96487.00;;;;5113261;28;20598;-55
2022/10/08 10:56:30;;;;;;;0.70;0.70;;;;;16.90;96476.00;;;;5114480;28;20194;-56
2022/10/08 10:59:27;;;;;;;1.97;1.27;;;17.50;42.30;17.10;96477.00;;;;5114227;28;20214;-55
2022/10/08 11:02:10;;;;;;;0.43;0.43;;;17.50;41.10;17.30;96486.00;;;;5114303;28;20220;-54
2022/10/08 11:04:51;;;;;;;0.80;0.80;;;17.70;41.10;17.50;96495.00;;;;5116618;28;20273;-54
2022/10/08 11:07:52;;;;;;;1.60;1.13;;;17.90;39.90;17.70;96468.00;;;;5113657;28;20197;-56
2022/10/08 11:10:42;;;;;;;1.20;1.20;;;18.00;39.90;18.40;96465.00;;;;5114127;28;20221;-54
2022/10/08 11:13:32;;;;;;;0.50;0.50;;;18.70;40.70;18.30;96476.00;;;;5095983;28;20205;-54
2022/10/08 11:16:17;;;;;;;1.77;1.13;;;18.70;37.80;17.80;96487.00;;;;5113185;28;20237;-54